Time;durP1;ratioP1;P1;durP2;ratioP2;P2;SDS_P1;SDS_P2;PMS_P1;PMS_P2;Temp;Humidity;BMP_temperature;BMP_pressure;BME280_temperature;BME280_humidity;BME280_pressure;Samples;Min_cycle;Max_cycle;Signal;HPM_P1;HPM_P2
2022/08/08 00:00:19;;;;;;;1.20;1.00;;;23.80;44.80;;;;;;10038864;28;20057;-65
2022/08/08 00:05:27;;;;;;;1.27;0.90;;;24.00;44.60;;;;;;10032435;28;20037;-65
2022/08/08 00:10:21;;;;;;;1.52;0.90;;;24.00;44.40;;;;;;10040312;28;20026;-65
2022/08/08 00:15:20;;;;;;;1.47;0.67;;;24.00;44.40;;;;;;10036121;28;20140;-64
2022/08/08 00:20:15;;;;;;;1.30;0.80;;;23.90;44.60;;;;;;10029837;28;20504;-64
2022/08/08 00:25:10;;;;;;;1.38;0.70;;;23.80;44.70;;;;;;10037758;28;20091;-65
2022/08/08 00:30:07;;;;;;;1.00;0.90;;;23.90;44.70;;;;;;10039794;28;20115;-65
2022/08/08 00:35:19;;;;;;;0.88;0.73;;;23.80;44.70;;;;;;10038598;28;20080;-65
2022/08/08 00:40:25;;;;;;;0.70;0.60;;;23.70;44.90;;;;;;10033453;28;20077;-64
2022/08/08 00:45:36;;;;;;;0.77;0.60;;;23.70;45.00;;;;;;10046553;28;20230;-64
2022/08/08 00:50:45;;;;;;;1.50;1.05;;;23.50;45.30;;;;;;10034164;28;20018;-64
2022/08/08 00:56:13;;;;;;;0.80;0.70;;;23.40;45.20;;;;;;10035132;28;20021;-64
2022/08/08 01:01:07;;;;;;;1.95;0.80;;;23.40;45.30;;;;;;10039470;28;20057;-64
2022/08/08 01:06:19;;;;;;;0.57;0.50;;;23.50;45.00;;;;;;10043464;28;20047;-63
2022/08/08 01:11:37;;;;;;;1.73;0.63;;;23.30;45.20;;;;;;10043112;28;20607;-63
2022/08/08 01:16:45;;;;;;;1.23;0.70;;;23.10;45.70;;;;;;10045553;28;20053;-64
2022/08/08 01:21:45;;;;;;;1.33;0.80;;;23.10;45.70;;;;;;10033753;28;20032;-64
2022/08/08 01:27:02;;;;;;;1.08;0.93;;;22.90;45.80;;;;;;10040554;28;20158;-65
2022/08/08 01:31:59;;;;;;;0.80;0.80;;;23.00;45.90;;;;;;10034863;28;20053;-64
2022/08/08 01:37:15;;;;;;;2.17;0.70;;;23.00;45.80;;;;;;10036007;28;20512;-64
2022/08/08 01:42:10;;;;;;;1.90;0.80;;;22.90;45.90;;;;;;10041404;28;20076;-63
2022/08/08 01:47:26;;;;;;;0.95;0.80;;;23.00;45.70;;;;;;10039143;28;20124;-64
2022/08/08 01:52:31;;;;;;;1.42;0.65;;;22.90;45.90;;;;;;10037152;28;20017;-64
2022/08/08 01:57:31;;;;;;;1.13;0.90;;;22.70;46.30;;;;;;10057683;28;20032;-64
2022/08/08 02:02:44;;;;;;;2.17;1.00;;;22.70;46.30;;;;;;10044998;28;20341;-64
2022/08/08 02:08:00;;;;;;;0.63;0.60;;;22.60;46.40;;;;;;10040736;28;20033;-63
2022/08/08 02:13:02;;;;;;;0.85;0.75;;;22.60;46.70;;;;;;10036742;28;20038;-64
2022/08/08 02:17:59;;;;;;;1.17;0.70;;;22.40;46.80;;;;;;10054628;28;20527;-64
2022/08/08 02:22:59;;;;;;;1.52;0.93;;;22.40;46.80;;;;;;10044701;28;20040;-64
2022/08/08 02:27:58;;;;;;;1.02;0.93;;;22.30;47.10;;;;;;10044299;28;20164;-65
2022/08/08 02:33:10;;;;;;;1.20;0.68;;;22.30;47.20;;;;;;10034302;28;20041;-64
2022/08/08 02:38:38;;;;;;;1.08;0.88;;;22.30;47.10;;;;;;10041248;28;20033;-64
2022/08/08 02:44:14;;;;;;;1.17;0.73;;;22.10;47.70;;;;;;10038091;28;20065;-63
2022/08/08 02:49:39;;;;;;;0.65;0.55;;;22.00;47.90;;;;;;10034637;28;20396;-63
2022/08/08 02:54:35;;;;;;;1.17;1.02;;;21.90;48.00;;;;;;10051851;28;20030;-64
2022/08/08 02:59:48;;;;;;;0.95;0.68;;;21.90;48.30;;;;;;10055223;28;20021;-65
2022/08/08 03:04:41;;;;;;;1.70;0.88;;;21.90;48.00;;;;;;10049020;28;20034;-65
2022/08/08 03:09:59;;;;;;;1.30;0.70;;;22.00;48.00;;;;;;10035952;28;20064;-65
2022/08/08 03:15:16;;;;;;;1.05;0.88;;;21.90;48.10;;;;;;10033353;28;20669;-64
2022/08/08 03:20:07;;;;;;;2.10;1.20;;;21.80;48.10;;;;;;10035729;28;20045;-64
2022/08/08 03:25:03;;;;;;;1.00;0.77;;;21.80;48.20;;;;;;10030574;28;20849;-65
2022/08/08 03:30:02;;;;;;;0.70;0.60;;;21.80;48.40;;;;;;10054013;28;20024;-64
2022/08/08 03:34:53;;;;;;;0.73;0.60;;;21.70;48.60;;;;;;10041065;28;20040;-64
2022/08/08 03:39:45;;;;;;;1.17;1.10;;;21.60;48.60;;;;;;10028989;28;20039;-63
2022/08/08 03:44:36;;;;;;;1.90;0.70;;;21.70;48.60;;;;;;10043445;28;20460;-65
2022/08/08 03:49:26;;;;;;;1.15;0.60;;;21.50;48.80;;;;;;10028544;28;20029;-64
2022/08/08 03:54:18;;;;;;;1.45;0.85;;;21.60;48.80;;;;;;10046163;28;20022;-64
2022/08/08 03:59:09;;;;;;;0.80;0.60;;;21.50;48.90;;;;;;10055801;28;20355;-64
2022/08/08 04:04:00;;;;;;;1.25;0.80;;;21.50;49.00;;;;;;10038419;28;20368;-65
2022/08/08 04:08:50;;;;;;;1.50;0.60;;;21.50;49.00;;;;;;10054145;28;20059;-64
2022/08/08 04:13:41;;;;;;;2.42;0.95;;;21.40;49.10;;;;;;10049272;28;20026;-65
2022/08/08 04:18:32;;;;;;;1.67;0.90;;;21.30;49.10;;;;;;10045119;28;20032;-65
2022/08/08 04:23:22;;;;;;;1.02;0.85;;;21.20;49.40;;;;;;10035442;28;20026;-64
2022/08/08 04:28:13;;;;;;;1.42;0.88;;;21.30;49.40;;;;;;10050932;28;20112;-64
2022/08/08 04:33:03;;;;;;;0.68;0.68;;;21.30;49.50;;;;;;10043642;28;20120;-65
2022/08/08 04:37:54;;;;;;;0.90;0.80;;;21.40;49.50;;;;;;10036060;28;20091;-66
2022/08/08 04:42:46;;;;;;;1.17;0.70;;;21.30;49.60;;;;;;10060610;28;20356;-65
2022/08/08 04:47:37;;;;;;;1.00;0.90;;;21.30;49.70;;;;;;10039917;28;20029;-65
2022/08/08 04:52:28;;;;;;;1.30;0.80;;;21.20;50.40;;;;;;10040168;28;20025;-64
2022/08/08 04:57:18;;;;;;;2.08;0.90;;;21.30;49.80;;;;;;10042566;28;20103;-65
2022/08/08 05:02:09;;;;;;;1.70;0.80;;;21.20;49.80;;;;;;10031742;28;20083;-65
2022/08/08 05:07:00;;;;;;;1.67;0.85;;;21.30;50.00;;;;;;10040465;28;20048;-65
2022/08/08 05:11:51;;;;;;;0.80;0.80;;;21.20;50.00;;;;;;10051223;28;20048;-64
2022/08/08 05:16:42;;;;;;;0.77;0.60;;;21.20;50.10;;;;;;10042849;28;20209;-65
2022/08/08 05:21:33;;;;;;;5.10;0.90;;;21.30;50.00;;;;;;10049931;28;20087;-65
2022/08/08 05:26:23;;;;;;;2.67;0.80;;;21.10;50.30;;;;;;10048681;28;20402;-66
2022/08/08 05:31:14;;;;;;;1.50;0.80;;;21.20;50.30;;;;;;10052309;28;20029;-65
2022/08/08 05:36:08;;;;;;;1.95;0.70;;;21.10;50.40;;;;;;10046091;28;20030;-65
2022/08/08 05:41:03;;;;;;;1.17;0.80;;;21.20;50.30;;;;;;10043879;28;20574;-64
2022/08/08 05:45:59;;;;;;;1.63;1.10;;;21.10;50.50;;;;;;10037450;28;20125;-65
2022/08/08 05:50:49;;;;;;;0.70;0.70;;;21.20;50.40;;;;;;10041486;28;20034;-63
2022/08/08 05:55:42;;;;;;;3.10;1.42;;;21.30;50.40;;;;;;10046202;28;20383;-64
2022/08/08 06:00:35;;;;;;;3.10;1.23;;;21.30;50.30;;;;;;10037984;28;20033;-64
2022/08/08 06:05:30;;;;;;;1.92;0.90;;;21.40;50.40;;;;;;10037885;28;20088;-65
2022/08/08 06:10:21;;;;;;;;;;;21.50;50.30;;;;;;10047746;28;20034;-64
2022/08/08 06:15:11;;;;;;;1.98;0.93;;;21.60;50.10;;;;;;10059300;28;19929;-64
2022/08/08 06:20:05;;;;;;;1.75;0.90;;;21.70;50.00;;;;;;10055191;28;20369;-64
2022/08/08 06:24:56;;;;;;;1.00;0.77;;;21.60;50.30;;;;;;10038029;28;20094;-64
2022/08/08 06:30:01;;;;;;;1.77;1.00;;;21.50;50.50;;;;;;10039055;28;20083;-64
2022/08/08 06:34:53;;;;;;;6.80;1.20;;;21.50;50.90;;;;;;10052599;28;20038;-61
2022/08/08 06:39:49;;;;;;;2.75;0.95;;;21.30;51.30;;;;;;10052592;28;20034;-61
2022/08/08 06:44:40;;;;;;;2.95;0.93;;;21.20;51.50;;;;;;10056313;28;20291;-64
2022/08/08 06:49:31;;;;;;;1.10;0.88;;;21.20;51.70;;;;;;10053724;28;20021;-64
2022/08/08 06:54:24;;;;;;;2.17;0.88;;;21.30;51.50;;;;;;10055434;28;20426;-62
2022/08/08 06:59:14;;;;;;;3.67;0.93;;;21.50;51.30;;;;;;10052018;28;20056;-61
2022/08/08 07:04:44;;;;;;;0.98;0.60;;;21.50;51.20;;;;;;10055953;28;20030;-62
2022/08/08 07:09:56;;;;;;;3.60;1.05;;;21.40;51.50;;;;;;10054848;28;20176;-61
2022/08/08 07:14:57;;;;;;;0.65;0.60;;;21.50;51.60;;;;;;10055445;28;20252;-62
2022/08/08 07:19:59;;;;;;;0.40;0.40;;;21.60;51.50;;;;;;10054560;28;20022;-62
2022/08/08 07:25:04;;;;;;;1.83;0.90;;;21.80;51.40;;;;;;10049293;28;20275;-61
2022/08/08 07:29:54;;;;;;;1.88;0.80;;;21.90;51.30;;;;;;10053954;28;20028;-58
2022/08/08 07:34:46;;;;;;;1.10;0.70;;;22.00;51.10;;;;;;10041362;28;20459;-61
2022/08/08 07:39:40;;;;;;;2.42;0.90;;;22.10;51.00;;;;;;10032932;28;20160;-61
2022/08/08 07:44:31;;;;;;;0.82;0.70;;;22.30;50.90;;;;;;10043349;28;20029;-63
2022/08/08 07:49:22;;;;;;;2.17;0.95;;;22.40;51.00;;;;;;10032171;28;20034;-62
2022/08/08 07:54:18;;;;;;;1.20;0.80;;;22.40;51.00;;;;;;10042601;28;20022;-61
2022/08/08 07:59:15;;;;;;;1.67;0.73;;;22.70;50.70;;;;;;10045654;28;20040;-61
2022/08/08 08:04:13;;;;;;;1.35;0.70;;;22.70;50.50;;;;;;10034545;28;20026;-64
2022/08/08 08:09:11;;;;;;;0.82;0.70;;;22.80;50.60;;;;;;10030053;28;20064;-64
2022/08/08 08:14:07;;;;;;;1.58;0.73;;;22.90;50.50;;;;;;10056639;28;20041;-64
2022/08/08 08:19:01;;;;;;;1.48;0.82;;;23.10;50.30;;;;;;10049897;28;20044;-62
2022/08/08 08:23:51;;;;;;;1.77;0.77;;;23.20;50.20;;;;;;10039974;28;20062;-65
2022/08/08 08:28:42;;;;;;;1.90;0.98;;;23.20;50.10;;;;;;10047529;28;20068;-63
2022/08/08 08:33:33;;;;;;;4.57;1.15;;;23.40;50.70;;;;;;10033345;28;20041;-63
2022/08/08 08:38:24;;;;;;;1.73;0.95;;;23.40;49.90;;;;;;10030232;28;20494;-66
2022/08/08 08:43:16;;;;;;;2.20;1.05;;;23.50;49.80;;;;;;10039995;28;20093;-65
2022/08/08 08:48:09;;;;;;;4.05;1.10;;;23.60;49.80;;;;;;10029067;28;20033;-65
2022/08/08 08:53:05;;;;;;;1.08;0.70;;;23.70;49.70;;;;;;10046232;28;20029;-63
2022/08/08 08:57:57;;;;;;;4.82;1.10;;;23.80;49.60;;;;;;10027590;28;20065;-63
2022/08/08 09:02:50;;;;;;;1.13;0.90;;;24.00;49.40;;;;;;10048439;28;20501;-62
2022/08/08 09:07:42;;;;;;;1.38;1.27;;;24.10;49.40;;;;;;10040393;28;20065;-63
2022/08/08 09:12:34;;;;;;;1.17;0.90;;;24.20;49.30;;;;;;10050812;28;20422;-63
2022/08/08 09:17:26;;;;;;;1.10;0.90;;;24.30;49.30;;;;;;10033735;28;20112;-65
2022/08/08 09:22:17;;;;;;;2.05;0.98;;;24.50;49.20;;;;;;10042384;28;20511;-63
2022/08/08 09:27:08;;;;;;;2.05;1.65;;;24.50;49.20;;;;;;10050112;28;20084;-60
2022/08/08 09:32:06;;;;;;;1.95;1.10;;;24.70;48.90;;;;;;10048440;28;20057;-62
2022/08/08 09:37:07;;;;;;;0.80;0.77;;;24.70;48.90;;;;;;10050109;28;20033;-63
2022/08/08 09:42:03;;;;;;;1.02;0.82;;;24.90;48.60;;;;;;10038180;28;20434;-61
2022/08/08 09:46:56;;;;;;;1.30;1.10;;;24.90;48.60;;;;;;10038060;28;20049;-62
2022/08/08 09:51:52;;;;;;;1.08;0.75;;;25.00;48.50;;;;;;10043320;28;20013;-63
2022/08/08 09:56:46;;;;;;;2.10;1.20;;;25.20;48.40;;;;;;10039082;28;20057;-63
2022/08/08 10:01:38;;;;;;;3.20;1.95;;;25.30;48.30;;;;;;10052278;28;20023;-63
2022/08/08 10:06:30;;;;;;;1.40;1.13;;;25.40;48.40;;;;;;10049256;28;20044;-64
2022/08/08 10:11:22;;;;;;;2.42;1.17;;;25.60;48.40;;;;;;10057352;28;20100;-65
2022/08/08 10:16:13;;;;;;;5.10;1.15;;;25.70;48.30;;;;;;10044791;28;20050;-62
2022/08/08 10:21:09;;;;;;;1.48;1.13;;;25.90;48.10;;;;;;10045040;28;20083;-63
2022/08/08 10:26:01;;;;;;;2.45;1.20;;;26.10;48.10;;;;;;10053161;28;20044;-56
2022/08/08 10:30:55;;;;;;;1.05;0.77;;;26.10;48.10;;;;;;10052280;28;20025;-56
2022/08/08 10:35:53;;;;;;;1.03;0.90;;;26.30;47.80;;;;;;10054892;28;20412;-62
2022/08/08 10:40:50;;;;;;;1.77;1.40;;;26.40;48.00;;;;;;10055849;28;20045;-59
2022/08/08 10:45:46;;;;;;;1.60;1.17;;;26.50;47.90;;;;;;10055434;28;20037;-62
2022/08/08 10:50:37;;;;;;;3.13;1.45;;;26.60;47.60;;;;;;10056942;28;20022;-59
2022/08/08 10:55:28;;;;;;;2.33;1.00;;;26.80;47.50;;;;;;10053614;28;20025;-60
2022/08/08 11:00:22;;;;;;;2.35;1.75;;;26.90;47.40;;;;;;10052906;28;20021;-60
2022/08/08 11:05:12;;;;;;;1.57;1.40;;;27.00;47.20;;;;;;10055001;28;20036;-60
2022/08/08 11:10:17;;;;;;;2.53;1.67;;;27.10;47.00;;;;;;10055478;28;20041;-62
2022/08/08 11:15:11;;;;;;;;;;;27.20;47.00;;;;;;10052613;28;20128;-60
2022/08/08 11:20:02;;;;;;;2.33;2.13;;;27.40;46.90;;;;;;10053105;28;19912;-60
2022/08/08 11:24:57;;;;;;;1.73;1.10;;;27.40;47.50;;;;;;10055364;28;20399;-62
2022/08/08 11:29:48;;;;;;;1.20;1.00;;;27.50;46.50;;;;;;10051722;28;20025;-61
2022/08/08 11:34:41;;;;;;;1.50;1.40;;;27.70;46.40;;;;;;10055366;28;20033;-61
2022/08/08 11:39:34;;;;;;;1.45;1.08;;;28.00;46.20;;;;;;10056432;28;20022;-62
2022/08/08 11:44:26;;;;;;;1.20;1.10;;;28.10;45.90;;;;;;10055000;28;20029;-63
2022/08/08 11:49:17;;;;;;;1.48;1.30;;;28.10;45.50;;;;;;10056177;28;20623;-61
2022/08/08 11:54:08;;;;;;;4.40;1.30;;;28.20;45.50;;;;;;10055825;28;20111;-60
2022/08/08 11:59:06;;;;;;;2.13;1.73;;;28.30;45.10;;;;;;10059640;28;20416;-61
2022/08/08 12:03:58;;;;;;;1.98;1.80;;;28.40;44.80;;;;;;10051044;28;20036;-63
2022/08/08 12:08:50;;;;;;;5.45;2.88;;;28.60;44.70;;;;;;10053348;28;20423;-65
2022/08/08 12:13:41;;;;;;;4.65;1.77;;;28.70;44.50;;;;;;10055026;28;20021;-64
2022/08/08 12:18:48;;;;;;;2.20;1.27;;;29.10;44.40;;;;;;10053267;28;20505;-64
2022/08/08 12:23:40;;;;;;;3.63;1.38;;;29.40;43.90;;;;;;10050090;28;20033;-61
2022/08/08 12:28:30;;;;;;;1.63;1.02;;;29.50;43.70;;;;;;10050057;28;20049;-62
2022/08/08 12:33:25;;;;;;;1.10;1.00;;;30.00;43.70;;;;;;10039138;28;20087;-62
2022/08/08 12:38:16;;;;;;;2.22;1.13;;;30.00;43.10;;;;;;10041051;28;20044;-63
2022/08/08 12:43:08;;;;;;;1.30;1.00;;;30.00;43.10;;;;;;10039935;28;20021;-59
2022/08/08 12:48:04;;;;;;;3.33;2.30;;;30.50;43.40;;;;;;10029967;28;20082;-61
2022/08/08 12:52:55;;;;;;;1.85;1.30;;;31.00;43.50;;;;;;10052311;28;20030;-61
2022/08/08 12:57:46;;;;;;;3.50;1.52;;;31.10;43.50;;;;;;10042272;28;20037;-60
2022/08/08 13:02:40;;;;;;;2.25;1.10;;;31.40;43.60;;;;;;10039271;28;20080;-62
2022/08/08 13:07:35;;;;;;;2.58;1.27;;;32.20;43.40;;;;;;10047831;28;20048;-59
2022/08/08 13:12:42;;;;;;;2.05;1.00;;;32.70;42.90;;;;;;10045765;28;20318;-60
2022/08/08 13:17:34;;;;;;;3.25;1.48;;;32.90;41.40;;;;;;10040942;28;20057;-60
2022/08/08 13:22:25;;;;;;;1.95;1.10;;;33.70;41.10;;;;;;10051118;28;20028;-64
2022/08/08 13:27:21;;;;;;;3.67;1.30;;;34.60;40.50;;;;;;10049316;28;20056;-58
2022/08/08 13:32:11;;;;;;;2.50;1.25;;;35.00;39.20;;;;;;10050709;28;20022;-61
2022/08/08 13:37:06;;;;;;;2.55;1.10;;;35.70;38.80;;;;;;10049727;28;20033;-59
2022/08/08 13:41:58;;;;;;;3.42;1.25;;;36.40;37.70;;;;;;10030218;28;20640;-59
2022/08/08 13:47:03;;;;;;;1.63;1.20;;;36.80;37.60;;;;;;10034063;28;20044;-59
2022/08/08 13:52:04;;;;;;;1.95;1.20;;;37.20;36.60;;;;;;10056241;28;20072;-65
2022/08/08 13:57:15;;;;;;;2.20;1.10;;;37.10;36.60;;;;;;10043856;28;20124;-64
2022/08/08 14:02:21;;;;;;;2.40;1.27;;;37.00;36.00;;;;;;10053318;28;20041;-60
2022/08/08 14:07:12;;;;;;;1.92;1.42;;;37.30;36.10;;;;;;10056174;28;20036;-65
2022/08/08 14:12:05;;;;;;;3.13;1.33;;;38.00;36.10;;;;;;10057452;28;20036;-68
2022/08/08 14:16:55;;;;;;;2.05;1.33;;;38.00;35.90;;;;;;10055928;28;20085;-67
2022/08/08 14:21:46;;;;;;;1.52;1.40;;;38.00;35.60;;;;;;10057164;28;20099;-65
2022/08/08 14:26:41;;;;;;;1.77;1.38;;;38.60;35.10;;;;;;10053183;28;20199;-66
2022/08/08 14:31:32;;;;;;;2.90;1.20;;;38.80;34.90;;;;;;10055716;28;20052;-63
2022/08/08 14:36:39;;;;;;;1.58;1.20;;;38.80;34.60;;;;;;10056228;28;20396;-62
2022/08/08 14:41:43;;;;;;;2.35;1.23;;;38.50;34.10;;;;;;10056129;28;20018;-65
2022/08/08 14:46:33;;;;;;;2.30;1.40;;;39.00;33.90;;;;;;10052070;28;20047;-64
2022/08/08 14:51:26;;;;;;;1.30;1.20;;;38.70;34.20;;;;;;10038072;28;20023;-65
2022/08/08 14:56:17;;;;;;;1.38;1.10;;;38.40;33.80;;;;;;10044166;28;20446;-62
2022/08/08 15:01:08;;;;;;;2.25;2.05;;;38.20;33.50;;;;;;10054434;28;20018;-63
2022/08/08 15:05:59;;;;;;;1.65;1.30;;;38.00;33.60;;;;;;10054812;28;20079;-66
2022/08/08 15:10:49;;;;;;;1.98;1.45;;;38.30;33.40;;;;;;10055297;28;20014;-66
2022/08/08 15:15:40;;;;;;;3.75;1.30;;;38.00;33.30;;;;;;10053861;28;20110;-65
2022/08/08 15:20:32;;;;;;;3.08;1.25;;;37.90;33.20;;;;;;10054650;28;20029;-64
2022/08/08 15:25:23;;;;;;;1.27;1.02;;;38.10;32.90;;;;;;10053763;28;20021;-62
2022/08/08 15:30:13;;;;;;;1.02;0.93;;;37.90;33.00;;;;;;10054760;28;20484;-62
2022/08/08 15:35:04;;;;;;;2.65;1.30;;;38.20;32.50;;;;;;10053822;28;20159;-64
2022/08/08 15:39:55;;;;;;;2.63;1.20;;;38.10;32.50;;;;;;10040505;28;20093;-67
2022/08/08 15:44:45;;;;;;;1.35;1.25;;;38.40;32.20;;;;;;10034362;28;20029;-63
2022/08/08 15:49:36;;;;;;;3.63;1.38;;;38.80;32.00;;;;;;10052835;28;20029;-62
2022/08/08 15:54:27;;;;;;;2.58;1.60;;;38.70;32.00;;;;;;10051923;28;20077;-64
2022/08/08 15:59:17;;;;;;;1.50;1.40;;;39.30;31.90;;;;;;10041815;28;20480;-63
2022/08/08 16:04:08;;;;;;;1.40;1.30;;;39.40;31.70;;;;;;10037778;28;20457;-64
2022/08/08 16:08:59;;;;;;;2.58;1.20;;;40.30;31.30;;;;;;10041142;28;20025;-65
2022/08/08 16:13:49;;;;;;;2.10;1.20;;;40.80;31.00;;;;;;10044862;28;20028;-61
2022/08/08 16:18:41;;;;;;;1.40;1.15;;;41.20;30.80;;;;;;10050963;28;20062;-60
2022/08/08 16:23:31;;;;;;;2.92;1.23;;;41.50;30.50;;;;;;10056172;28;20316;-62
2022/08/08 16:28:22;;;;;;;1.38;1.00;;;42.20;30.50;;;;;;10038818;28;20053;-64
2022/08/08 16:33:13;;;;;;;1.70;1.30;;;42.00;30.40;;;;;;10044285;28;20025;-60
2022/08/08 16:38:03;;;;;;;1.63;1.10;;;42.60;30.30;;;;;;10062576;28;20498;-60
2022/08/08 16:42:54;;;;;;;1.83;1.00;;;43.10;30.00;;;;;;10038006;28;20021;-59
2022/08/08 16:47:45;;;;;;;1.55;1.30;;;42.80;29.80;;;;;;10034570;28;20052;-65
2022/08/08 16:52:35;;;;;;;3.50;1.20;;;42.70;29.70;;;;;;10049593;28;20551;-61
2022/08/08 16:57:26;;;;;;;3.28;1.23;;;42.40;29.50;;;;;;10015286;28;20140;-67
2022/08/08 17:02:19;;;;;;;2.85;1.10;;;42.90;29.30;;;;;;10033810;28;20036;-64
2022/08/08 17:07:10;;;;;;;1.38;1.00;;;42.60;29.80;;;;;;10046154;28;20068;-65
2022/08/08 17:12:01;;;;;;;5.57;1.52;;;42.20;29.20;;;;;;10034030;28;20053;-64
2022/08/08 17:16:52;;;;;;;1.88;1.33;;;42.90;28.80;;;;;;10041947;28;20093;-62
2022/08/08 17:21:44;;;;;;;1.40;1.30;;;42.90;28.70;;;;;;10041992;28;20095;-62
2022/08/08 17:26:34;;;;;;;1.20;1.10;;;42.30;28.70;;;;;;10029957;28;20034;-64
2022/08/08 17:31:26;;;;;;;1.80;1.13;;;41.40;29.20;;;;;;10035027;28;20059;-66
2022/08/08 17:36:17;;;;;;;1.58;1.17;;;41.20;29.30;;;;;;10045635;28;20038;-68
2022/08/08 17:41:08;;;;;;;1.50;1.40;;;40.70;29.50;;;;;;10034649;28;20567;-64
2022/08/08 17:45:58;;;;;;;3.65;1.40;;;37.40;30.70;;;;;;10038948;28;20080;-64
2022/08/08 17:50:49;;;;;;;4.45;1.70;;;34.50;32.60;;;;;;10038513;28;20034;-65
2022/08/08 17:55:40;;;;;;;1.10;1.00;;;33.00;33.60;;;;;;10048318;28;20030;-67
2022/08/08 18:00:30;;;;;;;2.50;1.05;;;32.30;34.30;;;;;;10043141;28;20060;-68
2022/08/08 18:05:21;;;;;;;2.42;0.95;;;31.90;34.70;;;;;;10039513;28;20025;-64
2022/08/08 18:10:13;;;;;;;1.77;1.17;;;31.70;35.20;;;;;;10038908;28;20030;-66
2022/08/08 18:15:04;;;;;;;2.85;1.33;;;31.50;35.40;;;;;;10042189;28;20060;-61
2022/08/08 18:19:55;;;;;;;6.20;1.58;;;31.40;35.70;;;;;;10031173;28;20473;-62
2022/08/08 18:24:46;;;;;;;2.08;1.27;;;31.20;36.20;;;;;;10044514;28;20510;-56
2022/08/08 18:29:38;;;;;;;2.30;0.93;;;31.00;36.70;;;;;;10055915;28;20056;-62
2022/08/08 18:34:29;;;;;;;3.13;1.08;;;30.80;37.10;;;;;;10058628;28;20024;-62
2022/08/08 18:39:19;;;;;;;1.63;1.13;;;30.80;37.20;;;;;;10060448;28;20492;-61
2022/08/08 18:44:10;;;;;;;4.68;1.27;;;30.70;37.50;;;;;;10060018;28;20033;-62
2022/08/08 18:49:02;;;;;;;2.00;1.33;;;30.60;37.60;;;;;;10052731;28;20385;-62
2022/08/08 18:53:53;;;;;;;2.40;1.33;;;30.50;38.00;;;;;;10059601;28;20103;-64
2022/08/08 18:58:43;;;;;;;2.83;1.50;;;30.30;38.40;;;;;;10038376;28;20169;-65
2022/08/08 19:03:34;;;;;;;1.27;1.17;;;30.10;38.50;;;;;;10058221;28;20413;-62
2022/08/08 19:08:25;;;;;;;3.35;1.73;;;29.90;39.10;;;;;;10054154;28;20033;-60
2022/08/08 19:13:15;;;;;;;3.03;1.52;;;29.90;39.30;;;;;;10055111;28;20029;-64
2022/08/08 19:18:07;;;;;;;1.58;1.33;;;29.80;39.70;;;;;;10057668;28;20049;-61
2022/08/08 19:22:58;;;;;;;1.48;1.20;;;29.80;39.90;;;;;;10057711;28;20095;-62
2022/08/08 19:27:49;;;;;;;2.42;1.20;;;29.70;40.10;;;;;;10054476;28;20463;-60
2022/08/08 19:32:39;;;;;;;2.40;1.40;;;29.60;40.40;;;;;;10058153;28;20028;-61
2022/08/08 19:37:30;;;;;;;1.35;1.02;;;29.50;40.60;;;;;;10055826;28;20037;-66
2022/08/08 19:42:21;;;;;;;3.72;1.33;;;29.60;40.60;;;;;;10037668;28;20026;-64
2022/08/08 19:47:12;;;;;;;2.92;1.30;;;29.50;40.70;;;;;;10035441;28;20190;-63
2022/08/08 19:52:03;;;;;;;2.33;1.55;;;29.30;40.80;;;;;;10048855;28;20017;-64
2022/08/08 19:56:54;;;;;;;1.83;1.30;;;29.20;41.10;;;;;;10045677;28;20038;-63
2022/08/08 20:01:44;;;;;;;2.63;1.35;;;29.10;41.20;;;;;;10037264;28;20064;-62
2022/08/08 20:06:35;;;;;;;4.82;1.38;;;29.10;41.10;;;;;;10023750;28;20029;-65
2022/08/08 20:11:25;;;;;;;2.60;1.23;;;28.90;41.40;;;;;;10040845;28;20064;-66
2022/08/08 20:16:17;;;;;;;1.88;1.40;;;28.80;41.40;;;;;;10030056;28;20127;-63
2022/08/08 20:21:08;;;;;;;1.88;1.58;;;28.80;41.40;;;;;;10041647;28;20038;-59
2022/08/08 20:25:59;;;;;;;1.73;1.42;;;28.70;41.40;;;;;;10051301;28;20030;-68
2022/08/08 20:30:49;;;;;;;2.03;1.33;;;28.70;41.30;;;;;;10046407;28;20636;-66
2022/08/08 20:35:41;;;;;;;4.35;1.63;;;28.60;41.40;;;;;;10045314;28;20036;-62
2022/08/08 20:40:32;;;;;;;3.60;1.40;;;28.60;41.60;;;;;;10051223;28;20031;-60
2022/08/08 20:45:24;;;;;;;4.78;1.52;;;28.60;41.60;;;;;;10048846;28;20025;-62
2022/08/08 20:50:15;;;;;;;3.58;1.42;;;28.50;41.60;;;;;;10042821;28;20076;-61
2022/08/08 20:55:06;;;;;;;4.63;1.80;;;28.50;41.60;;;;;;10051626;28;20075;-60
2022/08/08 20:59:57;;;;;;;6.88;2.08;;;28.50;41.60;;;;;;10038986;28;20068;-61
2022/08/08 21:04:47;;;;;;;6.22;1.63;;;28.30;41.90;;;;;;10030482;28;20726;-62
2022/08/08 21:09:38;;;;;;;3.67;1.55;;;28.10;42.00;;;;;;10038734;28;20021;-62
2022/08/08 21:14:29;;;;;;;2.63;1.35;;;28.20;42.10;;;;;;10033824;28;20492;-60
2022/08/08 21:19:20;;;;;;;1.42;1.20;;;28.10;42.40;;;;;;10044477;28;20044;-61
2022/08/08 21:24:11;;;;;;;2.90;1.27;;;28.10;42.40;;;;;;10050047;28;20039;-61
2022/08/08 21:29:01;;;;;;;3.05;1.67;;;28.00;42.50;;;;;;10027307;28;20029;-61
2022/08/08 21:33:52;;;;;;;1.52;1.02;;;27.70;42.60;;;;;;10048739;28;20491;-61
2022/08/08 21:38:43;;;;;;;1.38;1.25;;;27.70;42.60;;;;;;10036089;28;20401;-61
2022/08/08 21:43:34;;;;;;;2.15;1.08;;;27.70;42.70;;;;;;10027904;28;20029;-62
2022/08/08 21:48:25;;;;;;;2.72;1.02;;;27.70;42.50;;;;;;10052360;28;20030;-61
2022/08/08 21:53:15;;;;;;;1.33;1.23;;;27.60;42.70;;;;;;10049929;28;20030;-60
2022/08/08 21:58:06;;;;;;;1.45;1.13;;;27.40;42.70;;;;;;10030051;28;20034;-59
2022/08/08 22:02:56;;;;;;;2.55;1.65;;;27.40;42.90;;;;;;10034490;28;20064;-59
2022/08/08 22:07:47;;;;;;;1.45;1.00;;;27.30;42.80;;;;;;10042435;28;20499;-61
2022/08/08 22:12:38;;;;;;;2.50;1.38;;;27.20;42.80;;;;;;10028833;28;20492;-60
2022/08/08 22:17:29;;;;;;;1.63;1.10;;;27.10;42.80;;;;;;10058576;28;20049;-61
2022/08/08 22:22:20;;;;;;;1.88;1.30;;;27.20;42.90;;;;;;10039081;28;20758;-62
2022/08/08 22:27:10;;;;;;;1.63;1.08;;;27.20;42.90;;;;;;10031424;28;20042;-60
2022/08/08 22:32:01;;;;;;;3.42;1.23;;;27.10;43.10;;;;;;10045893;28;20029;-60
2022/08/08 22:36:52;;;;;;;1.45;0.93;;;27.00;43.10;;;;;;10045252;28;20038;-60
2022/08/08 22:41:42;;;;;;;1.85;1.30;;;26.90;43.20;;;;;;10043863;28;20665;-60
2022/08/08 22:46:33;;;;;;;1.92;1.10;;;26.80;43.30;;;;;;10044734;28;20576;-59
2022/08/08 22:51:24;;;;;;;1.38;1.15;;;26.70;43.30;;;;;;10036839;28;20022;-60
2022/08/08 22:56:15;;;;;;;0.80;0.80;;;26.80;43.20;;;;;;10044740;28;20113;-60
2022/08/08 23:01:08;;;;;;;2.25;0.98;;;26.80;43.30;;;;;;10044183;28;20534;-61
2022/08/08 23:05:58;;;;;;;1.85;1.50;;;26.70;43.40;;;;;;10028437;28;20597;-61
2022/08/08 23:10:49;;;;;;;1.52;1.10;;;26.50;43.50;;;;;;10040802;28;20160;-59
2022/08/08 23:15:40;;;;;;;0.88;0.88;;;26.50;43.50;;;;;;10054043;28;20353;-59
2022/08/08 23:20:30;;;;;;;1.60;1.17;;;26.50;43.40;;;;;;10042052;28;20037;-59
2022/08/08 23:25:22;;;;;;;1.30;0.90;;;26.30;43.50;;;;;;10050022;28;20403;-59
2022/08/08 23:30:13;;;;;;;1.52;0.82;;;26.40;43.40;;;;;;10042275;28;20028;-60
2022/08/08 23:35:03;;;;;;;1.10;1.00;;;26.30;43.40;;;;;;10031413;28;20022;-59
2022/08/08 23:39:54;;;;;;;1.27;0.95;;;26.30;43.50;;;;;;10048857;28;20124;-61
2022/08/08 23:44:45;;;;;;;1.48;1.38;;;26.20;43.50;;;;;;10053193;28;20033;-60
2022/08/08 23:49:35;;;;;;;1.50;1.00;;;26.10;43.60;;;;;;10043258;28;20083;-60
2022/08/08 23:54:26;;;;;;;1.63;1.00;;;26.00;43.60;;;;;;10047598;28;20167;-64
2022/08/08 23:59:18;;;;;;;1.00;0.75;;;25.90;43.80;;;;;;10046752;28;20419;-62
